Dundee, MI (48131)

8:47 AM EST on January 27, 2015 (GMT -0500)
Dundee, MI | Change Station
CLOSE
Current Station
Personal Weather Station
Location: Dundee, MI
Elevation: 669 ft
Nearby Weather Stations

Elev 669 ft 41.94 °N, 83.65 °W | Updated 50 seconds ago

Clear
Clear
13.8 °F
Feels Like 14 °F
N
2.7
Wind Variable Wind from NNE

Today
High -- | Low -- °F
--% Chance of Precip.
Yesterday
High -- | Low -- °F
Precip. -- in
7:52 AM 5:42 PM
First Quarter, 54% visible
Pressure 30.07 in
Visibility 10.0 miles
Clouds Clear
Windchill 14 °F
Dew Point 10 °F
Humidity 84%
Rainfall 0.00 in
Snow Depth Not available.
UV 0 out of 12
Pollen .10 out of 12
Air Quality Not available.
Flu Activity Not available.
METAR KTTF 271335Z AUTO 34003KT 10SM CLR M11/M13 A3007 RMK AO2

More Conditions Fewer Conditions

Pressure 30.07 in
Visibility 10.0 miles
Clouds Clear
Windchill 14 °F
Dew Point 10 °F
Humidity 84%
Rainfall 0.00 in
Snow Depth Not available.
UV 0 out of 12
Pollen .10 out of 12
Air Quality Not available.
Flu Activity Not available.
METAR KTTF 271335Z AUTO 34003KT 10SM CLR M11/M13 A3007 RMK AO2

More Conditions Fewer Conditions

10-Day Weather Forecast

Almanac

Astronomy

Jan. 27, 2015 Rise Set
Actual Time
Civil Twilight
Nautical Twilight
Astronomical Twilight
Moon
Length of Visible Light
Length of Day
Tomorrow will be .
, % of the Moon is Illuminated

Today's Extremes

State Highs State Lows

Community

WunderPhotos

Upload Photos

1,790,628 photos uploaded!

WunderBlogs® & News

Nearby

Air Quality

  Air Quality AQ Index Pollutant
Not available.

Snow Depth

Station Depth Elevation

Earthquake Activity

City Distance Mag. Time & Date
Minimum magnitude displayed is 2.5.

Coastal Water Temperatures

Place Temperature

Nearby Weather Stations